createdAt,value
2024-01-28T00:00:13.788Z,103006.41
2024-01-28T00:03:15.594Z,102996.88
2024-01-28T00:06:17.191Z,102995.28
2024-01-28T00:09:19.067Z,102984.00
2024-01-28T00:12:20.879Z,102976.22
2024-01-28T00:15:22.350Z,102979.78
2024-01-28T00:18:24.536Z,102978.09
2024-01-28T00:21:26.435Z,102975.50
2024-01-28T00:24:27.942Z,102972.97
2024-01-28T00:27:29.598Z,102983.56
2024-01-28T00:30:31.076Z,102982.81
2024-01-28T00:33:32.707Z,102983.84
2024-01-28T00:36:34.206Z,102979.63
2024-01-28T00:39:35.675Z,102984.97
2024-01-28T00:42:37.142Z,102990.31
2024-01-28T00:45:38.969Z,102995.53
2024-01-28T00:48:40.568Z,102989.50
2024-01-28T00:51:42.397Z,102992.25
2024-01-28T00:54:44.284Z,102989.75
2024-01-28T00:57:45.906Z,102978.50
2024-01-28T01:00:47.711Z,102979.47
2024-01-28T01:03:49.738Z,102987.41
2024-01-28T01:06:51.242Z,102985.72
2024-01-28T01:09:53.103Z,102984.91
2024-01-28T01:12:54.825Z,102980.69
2024-01-28T01:15:56.237Z,102983.38
2024-01-28T01:18:58.069Z,102985.16
2024-01-28T01:21:59.576Z,102981.75
2024-01-28T01:25:01.459Z,102990.44
2024-01-28T01:28:03.256Z,102987.03
2024-01-28T01:31:04.822Z,102991.44
2024-01-28T01:34:06.782Z,102996.72
2024-01-28T01:37:08.699Z,102981.94
2024-01-28T01:40:10.147Z,102993.25
2024-01-28T01:43:11.958Z,102991.72
2024-01-28T01:46:13.782Z,102995.19
2024-01-28T01:49:15.327Z,102993.47
2024-01-28T01:52:16.965Z,102992.59
2024-01-28T01:55:18.804Z,102998.72
2024-01-28T01:58:20.706Z,103003.13
2024-01-28T02:01:22.489Z,102997.94
2024-01-28T02:04:24.069Z,102988.38
2024-01-28T02:07:26.024Z,102989.47
2024-01-28T02:10:27.815Z,102992.97
2024-01-28T02:13:29.302Z,102985.16
2024-01-28T02:16:31.068Z,102992.09
2024-01-28T02:19:33.080Z,102979.09
2024-01-28T02:22:34.555Z,102991.31
2024-01-28T02:25:36.041Z,102979.22
2024-01-28T02:28:37.500Z,102988.91
2024-01-28T02:31:38.922Z,102996.75
2024-01-28T02:34:40.559Z,102996.91
2024-01-28T02:37:42.057Z,102984.78
2024-01-28T02:40:43.513Z,102981.25
2024-01-28T02:43:45.326Z,102977.78
2024-01-28T02:46:46.787Z,102982.16
2024-01-28T02:49:48.790Z,102983.94
2024-01-28T02:52:50.661Z,102979.59
2024-01-28T02:55:52.154Z,102983.00
2024-01-28T02:58:53.881Z,102975.31
2024-01-28T03:01:55.638Z,102984.97
2024-01-28T03:04:57.068Z,102980.78
2024-01-28T03:07:58.668Z,102985.09
2024-01-28T03:11:00.250Z,102976.41
2024-01-28T03:14:01.674Z,102975.56
2024-01-28T03:17:03.407Z,102972.97
2024-01-28T03:20:05.096Z,102975.56
2024-01-28T03:23:06.516Z,102975.56
2024-01-28T03:26:08.000Z,102973.09
2024-01-28T03:29:09.737Z,102979.22
2024-01-28T03:32:11.204Z,102972.19
2024-01-28T03:35:12.984Z,102975.63
2024-01-28T03:38:14.478Z,102980.00
2024-01-28T03:41:16.246Z,102976.59
2024-01-28T03:44:17.686Z,102976.59
2024-01-28T03:47:19.169Z,102982.72
2024-01-28T03:50:21.220Z,102975.81
2024-01-28T03:53:23.063Z,102974.88
2024-01-28T03:56:24.575Z,102973.13
2024-01-28T03:59:26.326Z,102972.28
2024-01-28T04:02:28.022Z,102863.66
2024-01-28T04:05:29.521Z,102975.84
2024-01-28T04:08:31.236Z,102975.91
2024-01-28T04:11:33.000Z,102967.19
2024-01-28T04:14:34.441Z,102975.88
2024-01-28T04:17:36.263Z,102973.25
2024-01-28T04:20:37.722Z,102975.13
2024-01-28T04:23:39.159Z,102969.81
2024-01-28T04:26:40.571Z,102961.06
2024-01-28T04:29:42.019Z,102970.63
2024-01-28T04:32:43.834Z,102968.16
2024-01-28T04:35:45.261Z,102975.09
2024-01-28T04:38:46.955Z,102973.25
2024-01-28T04:41:48.708Z,102967.22
2024-01-28T04:44:50.155Z,102968.06
2024-01-28T04:47:52.169Z,102965.44
2024-01-28T04:50:53.878Z,102967.31
2024-01-28T04:53:55.330Z,102969.94
2024-01-28T04:56:57.116Z,102968.19
2024-01-28T04:59:58.618Z,102984.69
2024-01-28T05:03:00.150Z,102977.75
2024-01-28T05:06:01.782Z,102989.97
2024-01-28T05:09:03.284Z,102991.69
2024-01-28T05:12:04.807Z,102994.25
2024-01-28T05:15:06.308Z,102994.22
2024-01-28T05:18:07.859Z,102991.69
2024-01-28T05:21:09.746Z,102996.03
2024-01-28T05:24:11.660Z,102996.09
2024-01-28T05:27:13.141Z,103005.63
2024-01-28T05:30:15.062Z,103011.69
2024-01-28T05:33:17.038Z,103013.47
2024-01-28T05:36:18.629Z,103013.44
2024-01-28T05:39:20.523Z,103009.09
2024-01-28T05:42:22.372Z,103011.72
2024-01-28T05:45:23.888Z,103013.44
2024-01-28T05:48:25.857Z,103014.28
2024-01-28T05:51:27.788Z,103009.09
2024-01-28T05:54:29.380Z,103016.06
2024-01-28T05:57:31.284Z,103008.31
2024-01-28T06:00:33.106Z,103009.16
2024-01-28T06:03:34.883Z,103010.00
2024-01-28T06:06:37.137Z,103006.53
2024-01-28T06:09:38.677Z,103015.19
2024-01-28T06:12:40.475Z,103018.66
2024-01-28T06:15:42.040Z,103017.84
2024-01-28T06:18:43.564Z,103014.34
2024-01-28T06:21:45.274Z,103012.72
2024-01-28T06:24:47.193Z,103020.53
2024-01-28T06:27:48.732Z,103019.59
2024-01-28T06:30:50.536Z,103019.59
2024-01-28T06:33:52.559Z,103014.50
2024-01-28T06:36:54.104Z,103010.19
2024-01-28T06:39:55.940Z,103000.59
2024-01-28T06:42:57.806Z,103004.88
2024-01-28T06:45:59.308Z,103006.59
2024-01-28T06:49:00.924Z,103001.38
2024-01-28T06:52:02.408Z,103002.22
2024-01-28T06:55:03.953Z,103009.97
2024-01-28T06:58:05.626Z,103018.75
2024-01-28T07:01:07.189Z,103013.56
2024-01-28T07:04:09.110Z,103010.94
2024-01-28T07:07:10.713Z,103004.84
2024-01-28T07:10:12.179Z,103003.09
2024-01-28T07:13:14.026Z,103007.41
2024-01-28T07:16:15.835Z,103002.16
2024-01-28T07:19:17.495Z,103013.38
2024-01-28T07:22:19.405Z,103015.06
2024-01-28T07:25:21.222Z,103020.09
2024-01-28T07:28:22.662Z,103020.03
2024-01-28T07:31:24.137Z,103012.25
2024-01-28T07:34:26.043Z,103003.47
2024-01-28T07:37:27.856Z,102997.25
2024-01-28T07:40:29.605Z,102999.72
2024-01-28T07:43:31.044Z,102870.44
2024-01-28T07:46:32.816Z,103006.41
2024-01-28T07:49:34.720Z,103008.22
2024-01-28T07:52:36.196Z,102999.44
2024-01-28T07:55:37.841Z,103000.91
2024-01-28T07:58:39.653Z,102996.31
2024-01-28T08:01:41.175Z,102999.44
2024-01-28T08:04:43.309Z,102998.44
2024-01-28T08:07:44.866Z,103006.25
2024-01-28T08:10:46.382Z,103018.31
2024-01-28T08:13:48.200Z,103022.34
2024-01-28T08:16:49.673Z,103022.34
2024-01-28T08:19:51.684Z,103021.25
2024-01-28T08:22:53.863Z,103016.97
2024-01-28T08:25:55.317Z,103010.69
2024-01-28T08:28:57.151Z,103005.44
2024-01-28T08:31:58.933Z,102995.28
2024-01-28T08:35:00.399Z,102989.19
2024-01-28T08:38:02.193Z,102995.91
2024-01-28T08:41:04.162Z,102999.19
2024-01-28T08:44:05.619Z,103000.59
2024-01-28T08:47:07.443Z,103014.22
2024-01-28T08:50:09.377Z,103017.50
2024-01-28T08:53:10.867Z,103021.63
2024-01-28T08:56:12.587Z,103029.47
2024-01-28T08:59:14.145Z,103028.28
2024-01-28T09:02:15.573Z,103025.88
2024-01-28T09:05:17.117Z,103019.75
2024-01-28T09:08:18.573Z,103009.19
2024-01-28T09:11:20.107Z,103005.34
2024-01-28T09:14:21.573Z,102996.19
2024-01-28T09:17:23.104Z,103007.03
2024-01-28T09:20:24.981Z,103016.41
2024-01-28T09:23:26.444Z,103018.03
2024-01-28T09:26:27.898Z,103015.38
2024-01-28T09:29:29.429Z,103011.34
2024-01-28T09:32:30.971Z,103003.28
2024-01-28T09:35:32.440Z,103012.44
2024-01-28T09:38:34.256Z,103023.28
2024-01-28T09:41:35.940Z,103032.94
2024-01-28T09:44:37.389Z,103025.59
2024-01-28T09:47:39.435Z,103038.13
2024-01-28T09:50:41.373Z,103029.44
2024-01-28T09:53:42.823Z,103017.44
2024-01-28T09:56:44.712Z,103012.41
2024-01-28T09:59:46.233Z,103002.69
2024-01-28T10:02:47.673Z,103000.50
2024-01-28T10:05:49.407Z,102994.94
2024-01-28T10:08:50.910Z,102990.78
2024-01-28T10:11:52.654Z,102986.56
2024-01-28T10:14:54.601Z,102991.72
2024-01-28T10:17:56.148Z,102992.63
2024-01-28T10:20:57.672Z,102990.91
2024-01-28T10:23:59.458Z,102986.63
2024-01-28T10:27:00.918Z,102988.22
2024-01-28T10:30:02.587Z,102986.81
2024-01-28T10:33:04.490Z,102976.28
2024-01-28T10:36:05.954Z,102975.78
2024-01-28T10:39:07.745Z,102968.13
2024-01-28T10:42:09.826Z,102789.59
2024-01-28T10:45:11.670Z,102968.22
2024-01-28T10:48:13.450Z,102972.06
2024-01-28T10:51:15.441Z,102959.69
2024-01-28T10:54:17.377Z,102952.78
2024-01-28T10:57:19.161Z,102945.91
2024-01-28T11:00:21.031Z,102947.44
2024-01-28T11:03:22.617Z,102950.91
2024-01-28T11:06:24.180Z,102956.41
2024-01-28T11:09:26.040Z,102941.41
2024-01-28T11:12:27.558Z,102939.88
2024-01-28T11:15:29.048Z,102941.16
2024-01-28T11:18:30.583Z,102942.34
2024-01-28T11:21:32.137Z,102933.16
2024-01-28T11:24:33.818Z,102932.41
2024-01-28T11:27:35.392Z,102927.28
2024-01-28T11:30:37.265Z,102920.75
2024-01-28T11:33:39.111Z,102917.13
2024-01-28T11:36:40.616Z,102904.81
2024-01-28T11:39:42.428Z,102911.19
2024-01-28T11:42:43.945Z,102910.13
2024-01-28T11:45:45.496Z,102909.13
2024-01-28T11:48:47.260Z,102903.63
2024-01-28T11:51:49.151Z,102896.34
2024-01-28T11:54:50.766Z,102876.41
2024-01-28T11:57:52.765Z,102871.25
2024-01-28T12:00:54.655Z,102867.47
2024-01-28T12:03:56.229Z,102865.72
2024-01-28T12:06:59.006Z,102872.72
2024-01-28T12:10:00.949Z,102861.97
2024-01-28T12:13:02.873Z,102861.91
2024-01-28T12:16:04.778Z,102850.75
2024-01-28T12:19:06.363Z,102852.81
2024-01-28T12:22:08.312Z,102852.59
2024-01-28T12:25:10.264Z,102854.69
2024-01-28T12:28:12.034Z,102857.75
2024-01-28T12:31:14.044Z,102857.81
2024-01-28T12:34:15.644Z,102857.13
2024-01-28T12:37:17.612Z,102843.22
2024-01-28T12:40:19.371Z,102844.00
2024-01-28T12:43:20.869Z,102843.16
2024-01-28T12:46:22.721Z,102839.63
2024-01-28T12:49:24.587Z,102742.28
2024-01-28T12:52:26.107Z,102822.84
2024-01-28T12:55:27.970Z,102818.03
2024-01-28T12:58:29.857Z,102814.28
2024-01-28T13:01:31.490Z,102809.34
2024-01-28T13:04:33.346Z,102804.13
2024-01-28T13:07:35.179Z,102798.56
2024-01-28T13:10:36.662Z,102800.84
2024-01-28T13:13:38.415Z,102805.69
2024-01-28T13:16:40.190Z,102805.66
2024-01-28T13:19:42.118Z,102802.84
2024-01-28T13:22:45.231Z,102797.22
2024-01-28T13:25:47.685Z,102795.28
2024-01-28T13:28:49.545Z,102797.25
2024-01-28T13:34:57.353Z,102778.22
2024-01-28T13:37:59.208Z,102773.34
2024-01-28T13:41:01.080Z,102768.38
2024-01-28T13:44:02.518Z,102757.56
2024-01-28T13:47:04.338Z,102758.31
2024-01-28T13:50:06.115Z,102760.13
2024-01-28T13:53:07.651Z,102751.00
2024-01-28T13:56:09.400Z,102744.31
2024-01-28T13:59:11.480Z,102733.63
2024-01-28T14:02:12.933Z,102731.38
2024-01-28T14:05:14.734Z,102730.19
2024-01-28T14:08:16.385Z,102722.97
2024-01-28T14:11:17.813Z,102721.41
2024-01-28T14:14:20.181Z,102714.97
2024-01-28T14:17:21.893Z,102713.81
2024-01-28T14:20:23.539Z,102715.41
2024-01-28T14:23:25.347Z,102713.72
2024-01-28T14:26:26.770Z,102721.50
2024-01-28T14:29:29.240Z,102717.31
2024-01-28T14:32:31.416Z,102670.97
2024-01-28T14:35:35.564Z,102719.94
2024-01-28T14:38:38.909Z,102716.03
2024-01-28T14:41:40.674Z,102719.03
2024-01-28T14:44:42.389Z,102721.09
2024-01-28T14:47:43.999Z,102727.13
2024-01-28T14:50:45.514Z,102724.16
2024-01-28T14:53:47.017Z,102723.72
2024-01-28T14:56:48.492Z,102720.16
2024-01-28T14:59:50.138Z,102714.28
2024-01-28T15:02:51.591Z,102720.16
2024-01-28T15:05:53.083Z,102711.91
2024-01-28T15:08:54.564Z,102724.25
2024-01-28T15:11:56.007Z,102724.13
2024-01-28T15:14:57.469Z,102717.81
2024-01-28T15:17:59.099Z,102720.44
2024-01-28T15:21:00.939Z,102721.41
2024-01-28T15:24:02.779Z,102721.50
2024-01-28T15:27:04.230Z,102725.72
2024-01-28T15:30:05.997Z,102719.88
2024-01-28T15:33:07.582Z,102714.63
2024-01-28T15:36:09.087Z,102717.53
2024-01-28T15:39:10.588Z,102721.94
2024-01-28T15:42:12.067Z,102724.31
2024-01-28T15:45:13.610Z,102730.09
2024-01-28T15:48:15.254Z,102726.16
2024-01-28T15:51:16.827Z,102724.34
2024-01-28T15:54:18.335Z,102727.31
2024-01-28T15:57:19.886Z,102723.34
2024-01-28T16:00:21.604Z,102716.25
2024-01-28T16:03:23.329Z,102730.25
2024-01-28T16:06:24.891Z,102729.72
2024-01-28T16:09:32.953Z,102729.16
2024-01-28T16:12:37.278Z,102730.31
2024-01-28T16:15:39.229Z,102733.28
2024-01-28T16:18:41.071Z,102733.72
2024-01-28T16:21:42.992Z,102734.97
2024-01-28T16:24:44.507Z,102735.94
2024-01-28T16:27:46.039Z,102744.28
2024-01-28T16:30:47.656Z,102742.00
2024-01-28T16:33:49.284Z,102731.03
2024-01-28T16:36:50.843Z,102727.72
2024-01-28T16:39:52.429Z,102731.72
2024-01-28T16:42:54.017Z,102727.44
2024-01-28T16:45:55.590Z,102723.50
2024-01-28T16:48:57.138Z,102726.34
2024-01-28T16:51:58.857Z,102724.06
2024-01-28T16:55:00.704Z,102730.97
2024-01-28T16:58:02.701Z,102731.19
2024-01-28T17:01:04.641Z,102727.91
2024-01-28T17:04:06.679Z,102720.28
2024-01-28T17:07:08.254Z,102719.59
2024-01-28T17:10:09.868Z,102730.28
2024-01-28T17:13:11.792Z,102731.41
2024-01-28T17:16:13.526Z,102731.63
2024-01-28T17:19:15.015Z,102736.06
2024-01-28T17:22:16.511Z,102677.13
2024-01-28T17:25:18.403Z,102737.22
2024-01-28T17:28:19.880Z,102735.69
2024-01-28T17:31:21.880Z,102732.34
2024-01-28T17:34:23.790Z,102731.59
2024-01-28T17:37:25.655Z,102719.44
2024-01-28T17:40:27.618Z,102724.88
2024-01-28T17:43:29.511Z,102715.50
2024-01-28T17:46:30.969Z,102728.66
2024-01-28T17:49:33.165Z,102722.50
2024-01-28T17:52:34.937Z,102720.13
2024-01-28T17:55:36.390Z,102712.47
2024-01-28T17:58:38.300Z,102716.22
2024-01-28T18:01:40.254Z,102706.78
2024-01-28T18:04:42.120Z,102709.50
2024-01-28T18:07:43.663Z,102713.16
2024-01-28T18:10:45.115Z,102706.31
2024-01-28T18:13:46.928Z,102707.41
2024-01-28T18:16:48.389Z,102703.13
2024-01-28T18:19:49.944Z,102710.28
2024-01-28T18:22:51.889Z,102711.38
2024-01-28T18:25:53.357Z,102701.13
2024-01-28T18:28:54.807Z,102700.34
2024-01-28T18:31:56.279Z,102705.69
2024-01-28T18:34:59.269Z,102708.31
2024-01-28T18:38:00.837Z,102694.44
2024-01-28T18:41:02.316Z,102692.91
2024-01-28T18:44:04.068Z,102693.09
2024-01-28T18:47:05.512Z,102689.78
2024-01-28T18:50:07.123Z,102693.38
2024-01-28T18:53:09.024Z,102686.34
2024-01-28T18:56:10.490Z,102690.72
2024-01-28T18:59:11.960Z,102696.00
2024-01-28T19:02:13.404Z,102684.03
2024-01-28T19:05:14.990Z,102675.41
2024-01-28T19:08:16.771Z,102676.22
2024-01-28T19:11:18.250Z,102669.28
2024-01-28T19:14:20.108Z,102677.22
2024-01-28T19:17:23.560Z,102675.25
2024-01-28T19:20:25.932Z,102676.22
2024-01-28T19:23:27.401Z,102666.63
2024-01-28T19:26:29.193Z,102668.56
2024-01-28T19:29:30.641Z,102667.75
2024-01-28T19:32:32.141Z,102664.13
2024-01-28T19:35:33.645Z,102665.72
2024-01-28T19:38:35.089Z,102655.34
2024-01-28T19:41:36.865Z,102651.75
2024-01-28T19:44:38.361Z,102642.19
2024-01-28T19:47:40.430Z,102651.59
2024-01-28T19:50:41.931Z,102638.63
2024-01-28T19:53:43.687Z,102641.41
2024-01-28T19:56:45.188Z,102642.31
2024-01-28T19:59:46.906Z,102645.97
2024-01-28T20:02:48.388Z,102639.91
2024-01-28T20:05:50.041Z,102628.75
2024-01-28T20:08:51.946Z,102621.78
2024-01-28T20:11:53.409Z,102618.41
2024-01-28T20:14:55.221Z,102613.28
2024-01-28T20:17:57.090Z,102614.13
2024-01-28T20:20:58.707Z,102612.47
2024-01-28T20:24:00.327Z,102606.44
2024-01-28T20:27:01.792Z,102617.78
2024-01-28T20:30:03.261Z,102623.00
2024-01-28T20:33:05.072Z,102611.81
2024-01-28T20:36:06.844Z,102616.28
2024-01-28T20:39:08.393Z,102618.03
2024-01-28T20:42:10.006Z,102630.22
2024-01-28T20:45:11.499Z,102631.09
2024-01-28T20:48:13.008Z,102625.06
2024-01-28T20:51:14.520Z,102631.22
2024-01-28T20:54:16.010Z,102630.34
2024-01-28T20:57:17.576Z,102632.91
2024-01-28T21:00:19.425Z,102629.47
2024-01-28T21:03:20.992Z,102630.47
2024-01-28T21:06:22.657Z,102634.00
2024-01-28T21:09:24.576Z,102635.03
2024-01-28T21:12:26.161Z,102637.69
2024-01-28T21:15:28.042Z,102630.75
2024-01-28T21:18:30.088Z,102625.69
2024-01-28T21:21:31.651Z,102625.72
2024-01-28T21:24:33.464Z,102619.75
2024-01-28T21:27:36.442Z,102618.81
2024-01-28T21:30:39.556Z,102625.91
2024-01-28T21:33:41.585Z,102618.13
2024-01-28T21:36:43.649Z,102625.19
2024-01-28T21:39:45.180Z,102622.66
2024-01-28T21:42:46.784Z,102620.00
2024-01-28T21:45:48.260Z,102615.78
2024-01-28T21:48:50.161Z,102617.56
2024-01-28T21:51:51.853Z,102620.34
2024-01-28T21:54:53.410Z,102619.56
2024-01-28T21:57:55.298Z,102618.78
2024-01-28T22:00:56.915Z,102609.34
2024-01-28T22:03:59.342Z,102602.41
2024-01-28T22:07:01.322Z,102596.31
2024-01-28T22:10:03.174Z,102602.47
2024-01-28T22:13:04.706Z,102598.19
2024-01-28T22:16:06.532Z,102474.94
2024-01-28T22:19:08.407Z,102604.44
2024-01-28T22:22:09.902Z,102600.22
2024-01-28T22:25:11.414Z,102604.59
2024-01-28T22:28:12.910Z,102607.22
2024-01-28T22:31:14.397Z,102602.09
2024-01-28T22:34:15.950Z,102593.56
2024-01-28T22:37:17.466Z,102591.97
2024-01-28T22:40:19.561Z,102586.78
2024-01-28T22:43:21.348Z,102574.84
2024-01-28T22:46:22.790Z,102573.19
2024-01-28T22:49:25.430Z,102570.59
2024-01-28T22:52:27.293Z,102570.72
2024-01-28T22:55:31.483Z,102565.59
2024-01-28T22:58:33.278Z,102567.34
2024-01-28T23:01:35.359Z,102561.38
2024-01-28T23:04:37.009Z,102562.25
2024-01-28T23:07:38.871Z,102556.28
2024-01-28T23:10:40.869Z,102564.97
2024-01-28T23:13:42.302Z,102556.31
2024-01-28T23:16:43.749Z,102561.50
2024-01-28T23:19:45.471Z,102559.78
2024-01-28T23:22:47.023Z,102556.34
2024-01-28T23:25:48.782Z,102557.25
2024-01-28T23:28:50.238Z,102554.69
2024-01-28T23:31:52.019Z,102555.69
2024-01-28T23:34:53.958Z,102557.28
2024-01-28T23:37:55.556Z,102568.75
2024-01-28T23:40:57.086Z,102562.03
2024-01-28T23:43:58.914Z,102569.88
2024-01-28T23:47:00.359Z,102566.38
2024-01-28T23:50:02.326Z,102565.59
2024-01-28T23:53:04.176Z,102562.34
2024-01-28T23:56:05.598Z,102549.44
2024-01-28T23:59:07.408Z,102552.78
